Time;durP1;ratioP1;P1;durP2;ratioP2;P2;SDS_P1;SDS_P2;PMS_P1;PMS_P2;Temp;Humidity;BMP_temperature;BMP_pressure;BME280_temperature;BME280_humidity;BME280_pressure;Samples;Min_cycle;Max_cycle;Signal;HPM_P1;HPM_P2
2020/07/12 00:02:53;;;;;;;2.10;1.90;;;;;;;21.48;58.29;101235.90;;;;-51
2020/07/12 00:05:53;;;;;;;1.93;1.83;;;;;;;21.47;58.33;101239.46;;;;-51
2020/07/12 00:08:53;;;;;;;2.91;1.90;;;;;;;21.48;58.25;101247.20;;;;-51
2020/07/12 00:11:53;;;;;;;2.20;2.00;;;;;;;21.47;58.23;101243.95;;;;-51
2020/07/12 00:15:53;;;;;;;2.23;1.97;;;;;;;21.46;58.29;101243.70;;;;-52
2020/07/12 00:19:53;;;;;;;2.00;1.81;;;;;;;21.46;58.19;101242.62;;;;-51
2020/07/12 00:25:53;;;;;;;2.12;1.99;;;;;;;21.45;58.24;101245.15;;;;-51
2020/07/12 00:31:53;;;;;;;2.09;1.89;;;;;;;21.44;58.31;101246.54;;;;-51
2020/07/12 00:35:53;;;;;;;2.12;1.92;;;;;;;21.43;58.29;101248.14;;;;-51
2020/07/12 00:45:19;;;;;;;2.19;1.99;;;;;;;21.43;58.20;101257.03;;;;-52
2020/07/12 00:48:19;;;;;;;2.81;1.87;;;;;;;21.42;58.31;101261.03;;;;-53
2020/07/12 00:51:19;;;;;;;2.11;1.91;;;;;;;21.40;58.30;101258.37;;;;-52
2020/07/12 00:54:19;;;;;;;2.03;1.85;;;;;;;21.40;58.20;101258.04;;;;-53
2020/07/12 00:57:19;;;;;;;2.20;2.00;;;;;;;21.41;58.25;101263.99;;;;-53
2020/07/12 01:00:19;;;;;;;2.03;1.81;;;;;;;21.39;58.27;101261.80;;;;-53
2020/07/12 01:03:19;;;;;;;2.32;1.71;;;;;;;21.39;58.23;101258.18;;;;-52
2020/07/12 01:06:20;;;;;;;2.31;2.11;;;;;;;21.39;58.22;101262.17;;;;-52
2020/07/12 01:09:19;;;;;;;1.90;1.80;;;;;;;21.39;58.27;101262.50;;;;-53
2020/07/12 01:12:19;;;;;;;2.19;2.00;;;;;;;21.38;58.17;101260.71;;;;-52
2020/07/12 01:15:19;;;;;;;1.91;1.80;;;;;;;21.38;58.18;101260.87;;;;-52
2020/07/12 01:18:19;;;;;;;2.17;1.99;;;;;;;21.38;58.18;101263.40;;;;-52
2020/07/12 01:21:19;;;;;;;2.03;1.87;;;;;;;21.37;58.22;101259.81;;;;-52
2020/07/12 01:24:20;;;;;;;2.05;1.83;;;;;;;21.38;58.16;101261.69;;;;-52
2020/07/12 01:27:19;;;;;;;2.12;1.92;;;;;;;21.37;58.25;101260.20;;;;-52
2020/07/12 01:30:19;;;;;;;1.91;1.80;;;;;;;21.37;58.29;101260.47;;;;-52
2020/07/12 01:33:37;;;;;;;2.10;1.90;;;;;;;21.37;58.22;101254.41;;;;-52
2020/07/12 01:36:19;;;;;;;2.36;1.91;;;;;;;21.36;58.21;101257.83;;;;-52
2020/07/12 01:39:19;;;;;;;2.17;1.98;;;;;;;21.36;58.17;101256.69;;;;-52
2020/07/12 01:42:19;;;;;;;2.19;1.99;;;;;;;21.35;58.17;101259.19;;;;-53
2020/07/12 01:45:19;;;;;;;1.85;1.75;;;;;;;21.36;58.20;101255.47;;;;-52
2020/07/12 01:48:19;;;;;;;1.92;1.81;;;;;;;21.36;58.18;101250.25;;;;-53
2020/07/12 01:51:20;;;;;;;2.08;1.88;;;;;;;21.35;58.20;101251.47;;;;-52
2020/07/12 01:54:19;;;;;;;2.23;2.03;;;;;;;21.34;58.11;101247.29;;;;-52
2020/07/12 01:57:19;;;;;;;2.08;1.88;;;;;;;21.35;58.17;101251.85;;;;-52
2020/07/12 02:00:19;;;;;;;1.94;1.84;;;;;;;21.34;58.25;101251.94;;;;-52
2020/07/12 02:03:19;;;;;;;2.01;1.89;;;;;;;21.34;58.24;101247.70;;;;-52
2020/07/12 02:06:19;;;;;;;2.02;1.90;;;;;;;21.33;58.19;101243.46;;;;-52
2020/07/12 02:09:20;;;;;;;1.99;1.79;;;;;;;21.33;58.19;101247.05;;;;-52
2020/07/12 02:12:19;;;;;;;1.87;1.77;;;;;;;21.33;58.27;101245.72;;;;-53
2020/07/12 02:15:19;;;;;;;1.84;1.71;;;;;;;21.32;58.18;101241.97;;;;-53
2020/07/12 02:18:19;;;;;;;2.16;1.98;;;;;;;21.31;58.13;101239.69;;;;-52
2020/07/12 02:21:20;;;;;;;1.99;1.81;;;;;;;21.32;58.17;101244.17;;;;-53
2020/07/12 02:25:20;;;;;;;1.81;1.71;;;;;;;21.31;58.14;101239.20;;;;-53
2020/07/12 02:28:20;;;;;;;1.88;1.72;;;;;;;21.30;58.13;101237.45;;;;-52
2020/07/12 02:31:19;;;;;;;1.95;1.78;;;;;;;21.30;58.10;101234.36;;;;-52
2020/07/12 02:34:19;;;;;;;2.07;1.87;;;;;;;21.30;58.16;101238.20;;;;-52
2020/07/12 02:37:19;;;;;;;2.10;1.90;;;;;;;21.30;58.14;101243.00;;;;-52
2020/07/12 02:40:19;;;;;;;1.99;1.85;;;;;;;21.29;58.22;101241.51;;;;-52
2020/07/12 02:43:20;;;;;;;2.19;1.88;;;;;;;21.30;58.17;101249.12;;;;-53
2020/07/12 02:46:20;;;;;;;2.05;1.85;;;;;;;21.29;58.17;101250.56;;;;-52
2020/07/12 02:49:19;;;;;;;1.84;1.74;;;;;;;21.29;58.14;101249.09;;;;-52
2020/07/12 02:52:19;;;;;;;1.89;1.79;;;;;;;21.27;58.21;101250.81;;;;-53
2020/07/12 02:55:19;;;;;;;1.90;1.80;;;;;;;21.28;58.18;101257.58;;;;-52
2020/07/12 02:58:19;;;;;;;1.91;1.81;;;;;;;21.27;58.22;101261.66;;;;-52
2020/07/12 03:01:19;;;;;;;2.68;1.89;;;;;;;21.27;58.19;101257.30;;;;-52
2020/07/12 03:04:20;;;;;;;1.96;1.81;;;;;;;21.27;58.19;101254.61;;;;-52
2020/07/12 03:07:19;;;;;;;1.90;1.80;;;;;;;21.25;58.28;101247.36;;;;-53
2020/07/12 03:10:19;;;;;;;1.70;1.60;;;;;;;21.26;58.25;101251.27;;;;-52
2020/07/12 03:13:19;;;;;;;1.93;1.83;;;;;;;21.26;58.23;101256.48;;;;-53
2020/07/12 03:16:19;;;;;;;2.35;1.70;;;;;;;21.26;58.21;101259.42;;;;-52
2020/07/12 03:19:19;;;;;;;1.96;1.77;;;;;;;21.25;58.10;101258.83;;;;-52
2020/07/12 03:22:19;;;;;;;2.01;1.91;;;;;;;21.23;58.11;101255.81;;;;-53
2020/07/12 03:25:19;;;;;;;2.01;1.80;;;;;;;21.22;58.21;101262.31;;;;-52
2020/07/12 03:28:19;;;;;;;2.26;2.03;;;;;;;21.21;58.01;101264.92;;;;-53
2020/07/12 03:31:19;;;;;;;2.31;2.10;;;;;;;21.20;57.54;101269.78;;;;-52
2020/07/12 03:34:19;;;;;;;2.25;2.05;;;;;;;21.19;56.83;101276.23;;;;-52
2020/07/12 03:37:19;;;;;;;2.67;2.18;;;;;;;21.18;56.15;101279.78;;;;-53
2020/07/12 03:40:19;;;;;;;2.27;2.07;;;;;;;21.18;55.72;101286.55;;;;-53
2020/07/12 03:43:20;;;;;;;2.94;2.12;;;;;;;21.17;55.47;101285.50;;;;-52
2020/07/12 03:46:19;;;;;;;2.20;2.00;;;;;;;21.16;55.24;101287.09;;;;-52
2020/07/12 03:49:19;;;;;;;3.66;2.03;;;;;;;21.15;55.06;101284.16;;;;-53
2020/07/12 03:52:19;;;;;;;2.27;2.07;;;;;;;21.14;54.78;101290.25;;;;-52
2020/07/12 03:55:19;;;;;;;2.21;2.01;;;;;;;21.14;54.60;101289.27;;;;-52
2020/07/12 03:58:19;;;;;;;2.32;2.12;;;;;;;21.13;54.54;101288.63;;;;-52
2020/07/12 04:01:20;;;;;;;2.95;2.30;;;;;;;21.11;54.40;101292.02;;;;-53
2020/07/12 04:04:19;;;;;;;2.41;1.88;;;;;;;21.10;54.27;101292.64;;;;-52
2020/07/12 04:07:19;;;;;;;5.44;2.66;;;;;;;21.04;53.19;101294.52;;;;-57
2020/07/12 04:10:19;;;;;;;3.91;2.23;;;;;;;20.43;51.58;101293.05;;;;-59
2020/07/12 04:13:19;;;;;;;3.05;2.42;;;;;;;20.15;51.27;101298.61;;;;-56
2020/07/12 04:16:19;;;;;;;3.27;2.55;;;;;;;19.67;52.17;101299.83;;;;-54
2020/07/12 04:19:20;;;;;;;2.71;2.37;;;;;;;19.40;52.57;101304.43;;;;-54
2020/07/12 04:22:20;;;;;;;2.69;2.46;;;;;;;19.15;52.96;101308.80;;;;-54
2020/07/12 04:25:19;;;;;;;3.12;2.57;;;;;;;18.98;53.25;101314.61;;;;-53
2020/07/12 04:28:19;;;;;;;2.79;2.49;;;;;;;18.89;53.47;101318.40;;;;-61
2020/07/12 04:31:19;;;;;;;3.95;2.32;;;;;;;19.24;53.72;101319.08;;;;-61
2020/07/12 04:34:19;;;;;;;2.95;2.30;;;;;;;19.48;53.70;101314.02;;;;-61
2020/07/12 04:37:19;;;;;;;2.40;2.20;;;;;;;19.69;54.00;101315.97;;;;-61
2020/07/12 04:40:19;;;;;;;2.93;2.10;;;;;;;19.84;54.23;101314.81;;;;-61
2020/07/12 04:43:19;;;;;;;2.50;2.23;;;;;;;19.97;54.33;101320.93;;;;-61
2020/07/12 04:46:19;;;;;;;2.45;2.02;;;;;;;20.08;54.44;101321.52;;;;-61
2020/07/12 04:49:19;;;;;;;3.41;2.33;;;;;;;20.16;54.57;101321.75;;;;-62
2020/07/12 04:52:19;;;;;;;2.41;1.94;;;;;;;20.22;54.60;101320.06;;;;-62
2020/07/12 04:55:20;;;;;;;2.25;2.05;;;;;;;20.28;54.67;101326.19;;;;-61
2020/07/12 04:58:20;;;;;;;2.17;1.97;;;;;;;20.34;54.74;101333.22;;;;-60
2020/07/12 05:01:19;;;;;;;2.07;1.90;;;;;;;20.36;54.81;101336.34;;;;-61
2020/07/12 05:04:19;;;;;;;2.44;2.14;;;;;;;20.41;54.92;101342.03;;;;-61
2020/07/12 05:07:19;;;;;;;2.22;1.99;;;;;;;20.44;55.02;101342.06;;;;-61
2020/07/12 05:10:19;;;;;;;3.49;2.10;;;;;;;20.46;55.08;101340.42;;;;-62
2020/07/12 05:13:19;;;;;;;2.20;2.00;;;;;;;20.49;55.20;101345.91;;;;-61
2020/07/12 05:16:19;;;;;;;2.94;1.93;;;;;;;20.51;55.27;101341.71;;;;-62
2020/07/12 05:19:19;;;;;;;2.79;1.95;;;;;;;20.52;55.27;101340.00;;;;-61
2020/07/12 05:22:19;;;;;;;2.29;2.09;;;;;;;20.51;55.25;101340.00;;;;-63
2020/07/12 05:25:19;;;;;;;2.30;2.10;;;;;;;20.51;55.27;101341.47;;;;-61
2020/07/12 05:28:19;;;;;;;2.45;2.13;;;;;;;20.52;55.20;101347.33;;;;-61
2020/07/12 05:31:19;;;;;;;2.28;1.99;;;;;;;20.53;55.13;101348.34;;;;-61
2020/07/12 05:34:19;;;;;;;2.35;2.15;;;;;;;20.54;55.16;101352.91;;;;-62
2020/07/12 05:37:19;;;;;;;2.34;2.14;;;;;;;20.54;55.08;101358.77;;;;-63
2020/07/12 05:40:19;;;;;;;5.47;3.63;;;;;;;20.54;54.95;101360.06;;;;-61
2020/07/12 05:43:19;;;;;;;3.85;3.14;;;;;;;20.55;55.16;101363.69;;;;-62
2020/07/12 05:46:19;;;;;;;4.77;3.17;;;;;;;20.56;55.21;101365.64;;;;-62
2020/07/12 05:49:19;;;;;;;3.77;3.28;;;;;;;20.58;55.23;101364.16;;;;-61
2020/07/12 05:52:19;;;;;;;5.13;3.49;;;;;;;20.58;55.23;101363.67;;;;-56
2020/07/12 05:55:19;;;;;;;5.21;3.29;;;;;;;20.59;55.29;101364.59;;;;-56
2020/07/12 05:58:19;;;;;;;5.17;3.24;;;;;;;20.59;55.31;101362.07;;;;-55
2020/07/12 06:01:19;;;;;;;3.85;3.03;;;;;;;20.61;55.38;101358.98;;;;-55
2020/07/12 06:04:19;;;;;;;4.01;3.23;;;;;;;20.61;55.44;101362.59;;;;-55
2020/07/12 06:07:19;;;;;;;5.59;3.07;;;;;;;20.63;55.47;101364.98;;;;-56
2020/07/12 06:10:19;;;;;;;3.93;3.03;;;;;;;20.63;55.45;101362.47;;;;-56
2020/07/12 06:13:19;;;;;;;3.97;3.17;;;;;;;20.64;55.57;101365.48;;;;-57
2020/07/12 06:16:19;;;;;;;3.90;3.12;;;;;;;20.65;55.44;101365.52;;;;-56
2020/07/12 06:19:19;;;;;;;3.49;2.95;;;;;;;20.65;55.49;101371.42;;;;-56
2020/07/12 06:22:19;;;;;;;3.48;3.00;;;;;;;20.66;55.47;101373.82;;;;-56
2020/07/12 06:25:19;;;;;;;3.53;2.85;;;;;;;20.66;55.36;101377.16;;;;-56
2020/07/12 06:28:19;;;;;;;9.36;3.21;;;;;;;20.65;54.06;101375.98;;;;-56
2020/07/12 06:31:19;;;;;;;5.45;3.35;;;;;;;20.44;52.48;101377.00;;;;-53
2020/07/12 06:34:19;;;;;;;4.62;3.37;;;;;;;20.23;52.83;101376.39;;;;-58
2020/07/12 06:37:19;;;;;;;6.79;3.21;;;;;;;20.26;53.59;101376.22;;;;-57
2020/07/12 06:40:19;;;;;;;6.63;3.00;;;;;;;20.32;53.86;101379.34;;;;-58
2020/07/12 06:43:19;;;;;;;4.09;2.90;;;;;;;20.38;54.04;101383.11;;;;-57
2020/07/12 06:46:19;;;;;;;3.61;2.57;;;;;;;20.43;54.21;101378.14;;;;-57
2020/07/12 06:49:19;;;;;;;3.39;2.73;;;;;;;20.47;54.33;101379.19;;;;-58
2020/07/12 06:52:19;;;;;;;3.47;2.69;;;;;;;20.50;54.41;101381.02;;;;-57
2020/07/12 06:55:19;;;;;;;3.50;2.72;;;;;;;20.52;54.51;101383.66;;;;-57
2020/07/12 06:58:19;;;;;;;3.11;2.65;;;;;;;20.55;54.70;101379.97;;;;-58
2020/07/12 07:01:19;;;;;;;4.59;2.45;;;;;;;20.56;54.85;101382.50;;;;-58
2020/07/12 07:04:19;;;;;;;4.11;2.38;;;;;;;20.58;54.90;101379.19;;;;-58
2020/07/12 07:07:19;;;;;;;3.27;2.61;;;;;;;20.59;54.98;101379.99;;;;-57
2020/07/12 07:10:19;;;;;;;2.81;2.41;;;;;;;20.61;55.04;101382.30;;;;-58
2020/07/12 07:13:19;;;;;;;3.34;2.59;;;;;;;20.62;55.13;101383.20;;;;-53
2020/07/12 07:16:19;;;;;;;3.22;2.45;;;;;;;20.62;55.16;101382.39;;;;-53
2020/07/12 07:19:19;;;;;;;2.71;2.27;;;;;;;20.65;55.21;101383.59;;;;-51
2020/07/12 07:22:19;;;;;;;2.60;2.40;;;;;;;20.66;55.25;101381.16;;;;-51
2020/07/12 07:25:19;;;;;;;2.53;2.29;;;;;;;20.67;55.31;101383.63;;;;-64
2020/07/12 07:28:19;;;;;;;2.80;2.33;;;;;;;20.68;55.39;101383.63;;;;-64
2020/07/12 07:31:19;;;;;;;3.20;2.39;;;;;;;20.68;55.39;101384.28;;;;-54
2020/07/12 07:34:19;;;;;;;2.61;2.35;;;;;;;20.69;55.43;101382.03;;;;-53
2020/07/12 07:37:19;;;;;;;2.89;2.40;;;;;;;20.70;55.47;101380.24;;;;-54
2020/07/12 07:40:19;;;;;;;2.36;2.16;;;;;;;20.70;55.49;101376.90;;;;-54
2020/07/12 07:43:19;;;;;;;3.43;2.42;;;;;;;20.72;55.48;101372.78;;;;-54
2020/07/12 07:46:19;;;;;;;3.32;2.21;;;;;;;20.71;55.56;101373.84;;;;-54
2020/07/12 07:49:19;;;;;;;3.13;2.41;;;;;;;20.73;55.62;101371.75;;;;-53
2020/07/12 07:52:19;;;;;;;2.72;2.23;;;;;;;20.74;55.63;101372.16;;;;-54
2020/07/12 07:55:19;;;;;;;4.67;2.47;;;;;;;20.75;55.71;101365.52;;;;-52
2020/07/12 07:58:19;;;;;;;2.35;2.11;;;;;;;20.78;55.78;101366.20;;;;-55
2020/07/12 08:01:19;;;;;;;2.65;2.16;;;;;;;20.79;55.89;101362.28;;;;-54
2020/07/12 08:04:19;;;;;;;3.36;2.21;;;;;;;20.80;56.00;101362.31;;;;-56
2020/07/12 08:07:19;;;;;;;3.27;2.19;;;;;;;20.81;56.06;101358.48;;;;-58
2020/07/12 08:10:19;;;;;;;3.31;2.19;;;;;;;20.84;56.16;101356.27;;;;-59
2020/07/12 08:13:19;;;;;;;2.77;2.20;;;;;;;20.84;56.21;101355.78;;;;-57
2020/07/12 08:16:19;;;;;;;2.65;2.23;;;;;;;20.86;56.27;101352.88;;;;-55
2020/07/12 08:19:19;;;;;;;3.62;2.19;;;;;;;20.88;56.31;101349.23;;;;-59
2020/07/12 08:22:19;;;;;;;3.95;2.06;;;;;;;20.89;56.29;101344.44;;;;-55
2020/07/12 08:25:19;;;;;;;2.81;2.08;;;;;;;20.91;56.42;101346.74;;;;-59
2020/07/12 08:28:19;;;;;;;2.61;2.05;;;;;;;20.93;56.45;101345.64;;;;-53
2020/07/12 08:31:19;;;;;;;2.90;1.91;;;;;;;20.95;56.51;101346.89;;;;-51
2020/07/12 08:34:19;;;;;;;5.41;2.19;;;;;;;20.96;56.48;101343.79;;;;-55
2020/07/12 08:37:19;;;;;;;2.89;2.14;;;;;;;20.98;56.49;101346.05;;;;-58
2020/07/12 08:40:19;;;;;;;4.25;2.31;;;;;;;20.99;56.47;101342.05;;;;-55
2020/07/12 08:43:19;;;;;;;5.05;2.31;;;;;;;21.01;56.17;101339.72;;;;-51
2020/07/12 08:46:19;;;;;;;2.51;1.97;;;;;;;21.03;55.96;101340.56;;;;-54
2020/07/12 08:49:19;;;;;;;2.88;2.01;;;;;;;21.03;55.91;101333.64;;;;-53
2020/07/12 08:52:19;;;;;;;3.07;1.89;;;;;;;21.04;55.30;101331.77;;;;-58
2020/07/12 08:55:19;;;;;;;2.72;1.95;;;;;;;21.05;55.13;101333.91;;;;-55
2020/07/12 08:58:19;;;;;;;2.28;1.95;;;;;;;21.07;54.92;101333.13;;;;-51
2020/07/12 09:01:19;;;;;;;4.48;1.80;;;;;;;21.07;55.32;101333.77;;;;-52
2020/07/12 09:04:19;;;;;;;2.57;2.04;;;;;;;21.09;55.51;101332.09;;;;-51
2020/07/12 09:07:19;;;;;;;2.66;1.75;;;;;;;21.09;55.37;101332.09;;;;-56
2020/07/12 09:10:19;;;;;;;5.09;2.07;;;;;;;21.11;55.48;101333.83;;;;-53
2020/07/12 09:13:19;;;;;;;2.33;1.80;;;;;;;21.11;55.46;101326.50;;;;-56
2020/07/12 09:16:19;;;;;;;3.45;1.96;;;;;;;21.12;55.50;101325.27;;;;-55
2020/07/12 09:19:19;;;;;;;2.65;1.70;;;;;;;21.12;55.58;101322.42;;;;-51
2020/07/12 09:22:19;;;;;;;2.05;1.85;;;;;;;21.13;55.69;101313.08;;;;-52
2020/07/12 09:25:19;;;;;;;9.42;1.74;;;;;;;21.15;55.66;101320.69;;;;-52
2020/07/12 09:28:19;;;;;;;4.41;2.05;;;;;;;21.14;55.71;101317.55;;;;-58
2020/07/12 09:31:19;;;;;;;3.29;1.95;;;;;;;21.16;55.66;101319.46;;;;-57
2020/07/12 09:34:19;;;;;;;3.83;1.69;;;;;;;21.18;55.75;101321.36;;;;-58
2020/07/12 09:37:19;;;;;;;3.68;1.93;;;;;;;21.18;55.79;101321.03;;;;-50
2020/07/12 09:40:19;;;;;;;2.02;1.77;;;;;;;21.19;55.84;101322.86;;;;-48
2020/07/12 09:43:19;;;;;;;3.47;1.81;;;;;;;21.21;55.85;101325.90;;;;-57
2020/07/12 09:46:19;;;;;;;2.21;1.66;;;;;;;21.21;55.86;101322.80;;;;-53
2020/07/12 09:49:19;;;;;;;2.39;1.79;;;;;;;21.23;55.95;101317.77;;;;-53
2020/07/12 09:52:19;;;;;;;2.35;1.85;;;;;;;21.24;56.05;101316.47;;;;-51
2020/07/12 09:55:19;;;;;;;3.47;1.82;;;;;;;21.25;55.88;101315.69;;;;-53
2020/07/12 09:58:19;;;;;;;2.63;1.70;;;;;;;21.24;56.12;101310.92;;;;-56
2020/07/12 10:01:19;;;;;;;3.87;1.89;;;;;;;21.26;55.87;101319.19;;;;-53
2020/07/12 10:04:19;;;;;;;4.33;1.81;;;;;;;21.28;55.83;101317.83;;;;-56
2020/07/12 10:07:19;;;;;;;5.69;1.60;;;;;;;21.29;55.93;101316.95;;;;-51
2020/07/12 10:10:19;;;;;;;3.29;1.65;;;;;;;21.29;55.74;101310.59;;;;-57
2020/07/12 10:13:20;;;;;;;3.33;1.76;;;;;;;21.29;55.89;101304.89;;;;-55
2020/07/12 10:16:19;;;;;;;4.37;1.69;;;;;;;21.30;55.68;101302.84;;;;-51
2020/07/12 10:19:19;;;;;;;2.96;1.64;;;;;;;21.30;55.76;101302.03;;;;-52
2020/07/12 10:22:19;;;;;;;6.01;1.81;;;;;;;21.33;55.73;101300.09;;;;-56
2020/07/12 10:25:19;;;;;;;2.37;1.57;;;;;;;21.33;55.86;101301.03;;;;-56
2020/07/12 10:28:19;;;;;;;2.43;1.79;;;;;;;21.33;55.87;101296.75;;;;-55
2020/07/12 10:31:19;;;;;;;2.73;1.81;;;;;;;21.33;55.91;101299.86;;;;-51
2020/07/12 10:34:19;;;;;;;2.39;1.70;;;;;;;21.33;55.89;101301.89;;;;-51
2020/07/12 10:37:19;;;;;;;1.99;1.59;;;;;;;21.32;55.89;101306.62;;;;-56
2020/07/12 10:40:19;;;;;;;4.01;1.70;;;;;;;21.32;55.91;101307.03;;;;-55
2020/07/12 10:43:19;;;;;;;2.02;1.62;;;;;;;21.33;55.89;101308.74;;;;-52
2020/07/12 10:46:19;;;;;;;3.33;1.78;;;;;;;21.32;55.89;101307.44;;;;-53
2020/07/12 10:49:19;;;;;;;2.24;1.73;;;;;;;21.31;55.87;101305.89;;;;-52
2020/07/12 10:52:19;;;;;;;3.56;1.70;;;;;;;21.31;55.90;101305.89;;;;-53
2020/07/12 10:55:19;;;;;;;1.92;1.48;;;;;;;21.31;55.77;101304.48;;;;-52
2020/07/12 10:58:19;;;;;;;2.91;1.69;;;;;;;21.31;55.85;101303.28;;;;-52
2020/07/12 11:01:19;;;;;;;1.87;1.65;;;;;;;21.31;55.80;101297.63;;;;-52
2020/07/12 11:04:19;;;;;;;2.68;1.70;;;;;;;21.30;55.86;101298.03;;;;-53
2020/07/12 11:07:19;;;;;;;3.69;1.56;;;;;;;21.31;55.78;101301.05;;;;-53
2020/07/12 11:10:19;;;;;;;1.65;1.50;;;;;;;21.31;55.76;101299.05;;;;-53
2020/07/12 11:13:19;;;;;;;1.97;1.67;;;;;;;21.31;55.83;101297.58;;;;-53
2020/07/12 11:16:22;;;;;;;2.96;1.46;;;;;;;21.32;55.84;101294.48;;;;-52
2020/07/12 11:21:26;;;;;;;3.81;1.73;;;;;;;21.31;55.89;101282.90;;;;-53
2020/07/12 11:24:19;;;;;;;3.65;1.71;;;;;;;21.32;55.92;101280.45;;;;-52
2020/07/12 11:27:19;;;;;;;2.20;1.69;;;;;;;21.32;55.95;101280.95;;;;-52
2020/07/12 11:30:19;;;;;;;2.22;1.57;;;;;;;21.32;55.97;101283.47;;;;-52
2020/07/12 11:33:19;;;;;;;1.80;1.63;;;;;;;21.32;55.96;101282.66;;;;-52
2020/07/12 11:36:19;;;;;;;1.72;1.54;;;;;;;21.32;55.94;101281.76;;;;-52
2020/07/12 11:39:20;;;;;;;2.79;1.60;;;;;;;21.32;55.88;101285.59;;;;-52
2020/07/12 11:42:19;;;;;;;2.34;1.70;;;;;;;21.33;56.11;101282.24;;;;-58
2020/07/12 11:45:19;;;;;;;2.42;1.63;;;;;;;21.33;55.96;101276.89;;;;-56
2020/07/12 11:48:19;;;;;;;1.79;1.50;;;;;;;21.36;56.09;101277.73;;;;-56
2020/07/12 11:51:19;;;;;;;2.19;1.53;;;;;;;21.37;56.13;101276.61;;;;-60
2020/07/12 11:54:19;;;;;;;4.69;1.71;;;;;;;21.38;56.27;101270.91;;;;-61
2020/07/12 11:57:19;;;;;;;3.25;1.59;;;;;;;21.40;56.29;101265.95;;;;-57
2020/07/12 12:00:19;;;;;;;1.75;1.50;;;;;;;21.42;56.33;101271.69;;;;-53
2020/07/12 12:03:19;;;;;;;2.27;1.64;;;;;;;21.43;56.34;101266.00;;;;-56
2020/07/12 12:06:19;;;;;;;2.29;1.70;;;;;;;21.44;56.38;101266.84;;;;-51
2020/07/12 12:09:19;;;;;;;2.25;1.59;;;;;;;21.45;56.44;101265.86;;;;-55
2020/07/12 12:12:19;;;;;;;2.49;1.75;;;;;;;21.47;56.38;101259.69;;;;-56
2020/07/12 12:15:19;;;;;;;2.50;1.61;;;;;;;21.47;56.44;101257.23;;;;-60
2020/07/12 12:18:19;;;;;;;5.09;1.63;;;;;;;21.48;56.48;101251.07;;;;-53
2020/07/12 12:23:19;;;;;;;3.09;1.60;;;;;;;21.50;56.48;101261.37;;;;-54
2020/07/12 12:26:19;;;;;;;5.38;1.70;;;;;;;21.49;56.42;101256.04;;;;-51
2020/07/12 12:29:19;;;;;;;2.68;1.45;;;;;;;21.50;56.36;101256.64;;;;-52
2020/07/12 12:32:19;;;;;;;2.32;1.65;;;;;;;21.50;56.28;101259.58;;;;-50
2020/07/12 12:35:19;;;;;;;2.83;1.54;;;;;;;21.49;56.35;101255.72;;;;-51
2020/07/12 12:39:19;;;;;;;2.43;1.60;;;;;;;21.48;56.21;101246.42;;;;-51
2020/07/12 12:43:19;;;;;;;3.68;1.59;;;;;;;21.47;56.15;101243.70;;;;-51
2020/07/12 12:47:19;;;;;;;2.41;1.59;;;;;;;21.47;56.11;101244.52;;;;-51
2020/07/12 12:51:19;;;;;;;2.49;1.41;;;;;;;21.47;56.06;101239.05;;;;-51
2020/07/12 12:56:19;;;;;;;2.17;1.66;;;;;;;21.46;56.05;101237.02;;;;-51
2020/07/12 13:00:19;;;;;;;2.97;1.57;;;;;;;21.47;56.08;101229.11;;;;-51
2020/07/12 13:05:19;;;;;;;2.07;1.60;;;;;;;21.46;56.15;101225.81;;;;-50
2020/07/12 13:08:19;;;;;;;3.21;1.60;;;;;;;21.45;56.15;101221.34;;;;-50
2020/07/12 13:11:19;;;;;;;2.89;1.55;;;;;;;21.45;56.13;101215.95;;;;-51
2020/07/12 13:15:19;;;;;;;1.99;1.58;;;;;;;21.45;56.09;101223.21;;;;-50
2020/07/12 13:18:19;;;;;;;1.91;1.50;;;;;;;21.46;56.07;101224.22;;;;-51
2020/07/12 13:21:19;;;;;;;2.49;1.59;;;;;;;21.46;56.10;101227.07;;;;-50
2020/07/12 13:24:19;;;;;;;3.28;1.70;;;;;;;21.45;56.07;101221.98;;;;-51
2020/07/12 13:27:19;;;;;;;2.28;1.46;;;;;;;21.46;56.07;101226.42;;;;-51
2020/07/12 13:30:19;;;;;;;1.53;1.41;;;;;;;21.45;56.04;101218.97;;;;-50
2020/07/12 13:33:19;;;;;;;2.73;1.57;;;;;;;21.45;56.10;101218.72;;;;-51
2020/07/12 13:36:19;;;;;;;1.77;1.49;;;;;;;21.45;56.09;101217.91;;;;-50
2020/07/12 13:39:19;;;;;;;2.37;1.50;;;;;;;21.45;56.03;101213.99;;;;-51
2020/07/12 13:42:19;;;;;;;2.08;1.52;;;;;;;21.46;56.06;101208.86;;;;-51
2020/07/12 13:47:19;;;;;;;2.34;1.62;;;;;;;21.45;56.07;101206.09;;;;-51
2020/07/12 13:53:19;;;;;;;2.56;1.56;;;;;;;21.46;56.03;101201.84;;;;-51
2020/07/12 13:56:19;;;;;;;1.51;1.40;;;;;;;21.46;56.00;101193.96;;;;-51
2020/07/12 13:59:19;;;;;;;2.10;1.39;;;;;;;21.45;56.01;101192.55;;;;-51
2020/07/12 14:02:19;;;;;;;1.73;1.50;;;;;;;21.45;56.08;101189.86;;;;-51
2020/07/12 14:07:19;;;;;;;5.41;1.60;;;;;;;21.45;56.25;101193.53;;;;-49
2020/07/12 14:10:19;;;;;;;1.67;1.43;;;;;;;21.48;56.29;101185.06;;;;-58
2020/07/12 14:13:19;;;;;;;7.49;1.81;;;;;;;21.49;56.64;101180.11;;;;-51
2020/07/12 14:16:19;;;;;;;3.63;1.50;;;;;;;21.50;56.73;101176.71;;;;-52
2020/07/12 14:19:20;;;;;;;5.88;1.70;;;;;;;21.51;56.66;101178.34;;;;-51
2020/07/12 14:22:19;;;;;;;4.81;1.50;;;;;;;21.50;56.76;101174.43;;;;-51
2020/07/12 14:25:19;;;;;;;11.41;1.61;;;;;;;21.49;56.63;101178.40;;;;-51
2020/07/12 14:28:19;;;;;;;8.34;1.70;;;;;;;21.53;56.76;101178.77;;;;-55
2020/07/12 14:31:19;;;;;;;8.69;1.53;;;;;;;21.57;56.90;101179.45;;;;-48
2020/07/12 14:34:19;;;;;;;8.76;1.91;;;;;;;21.61;56.94;101174.69;;;;-51
2020/07/12 14:37:19;;;;;;;6.93;1.81;;;;;;;21.63;57.17;101169.81;;;;-50
2020/07/12 14:40:19;;;;;;;6.48;1.63;;;;;;;21.63;57.06;101174.12;;;;-50
2020/07/12 14:43:19;;;;;;;6.74;1.68;;;;;;;21.65;57.13;101173.41;;;;-57
2020/07/12 14:46:19;;;;;;;6.08;1.69;;;;;;;21.66;56.97;101175.94;;;;-49
2020/07/12 14:50:19;;;;;;;4.27;1.65;;;;;;;21.65;57.04;101171.53;;;;-49
2020/07/12 14:53:19;;;;;;;4.71;1.59;;;;;;;21.66;57.10;101168.84;;;;-52
2020/07/12 14:56:19;;;;;;;7.24;1.75;;;;;;;21.67;57.15;101163.73;;;;-50
2020/07/12 14:59:19;;;;;;;5.57;1.98;;;;;;;21.67;57.17;101160.55;;;;-50
2020/07/12 15:02:19;;;;;;;4.77;1.57;;;;;;;21.68;57.17;101152.63;;;;-56
2020/07/12 15:05:19;;;;;;;3.28;1.61;;;;;;;21.68;57.04;101149.20;;;;-56
2020/07/12 15:08:19;;;;;;;5.03;1.53;;;;;;;21.68;57.01;101146.83;;;;-57
2020/07/12 15:11:19;;;;;;;4.79;1.66;;;;;;;21.69;56.94;101147.27;;;;-60
2020/07/12 15:15:19;;;;;;;3.26;1.55;;;;;;;21.69;57.21;101143.02;;;;-58
2020/07/12 15:18:19;;;;;;;4.27;1.61;;;;;;;21.70;57.13;101143.91;;;;-60
2020/07/12 15:21:19;;;;;;;3.60;1.47;;;;;;;21.71;57.04;101143.20;;;;-53
2020/07/12 15:26:19;;;;;;;5.68;1.66;;;;;;;21.71;57.33;101144.67;;;;-55
2020/07/12 15:30:19;;;;;;;3.13;1.49;;;;;;;21.72;57.32;101146.13;;;;-51
2020/07/12 15:33:19;;;;;;;4.55;1.57;;;;;;;21.72;57.29;101148.91;;;;-50
2020/07/12 15:36:19;;;;;;;2.94;1.57;;;;;;;21.73;57.31;101147.62;;;;-53
2020/07/12 15:42:19;;;;;;;8.17;1.69;;;;;;;21.76;57.40;101151.55;;;;-55
2020/07/12 15:45:19;;;;;;;3.73;1.61;;;;;;;21.76;57.34;101148.69;;;;-53
2020/07/12 15:49:19;;;;;;;5.21;1.72;;;;;;;21.77;57.15;101148.97;;;;-63
2020/07/12 15:52:19;;;;;;;4.95;1.60;;;;;;;21.77;57.32;101151.57;;;;-53
2020/07/12 15:55:19;;;;;;;5.43;1.60;;;;;;;21.77;57.07;101153.05;;;;-53
2020/07/12 15:58:19;;;;;;;4.91;1.67;;;;;;;21.76;57.34;101152.13;;;;-52
2020/07/12 16:01:19;;;;;;;6.73;1.89;;;;;;;21.77;57.18;101148.69;;;;-57
2020/07/12 16:04:19;;;;;;;5.83;1.71;;;;;;;21.78;57.39;101147.98;;;;-52
2020/07/12 16:07:19;;;;;;;8.25;1.95;;;;;;;21.79;57.44;101145.23;;;;-57
2020/07/12 16:10:19;;;;;;;11.63;1.92;;;;;;;21.80;57.54;101141.30;;;;-51
2020/07/12 16:13:19;;;;;;;6.71;1.85;;;;;;;21.82;57.39;101141.48;;;;-51
2020/07/12 16:16:19;;;;;;;9.34;1.93;;;;;;;21.82;57.38;101141.56;;;;-58
2020/07/12 16:19:19;;;;;;;12.57;2.02;;;;;;;21.83;57.38;101139.95;;;;-57
2020/07/12 16:22:19;;;;;;;5.37;1.69;;;;;;;21.85;57.52;101142.47;;;;-52
2020/07/12 16:25:19;;;;;;;5.61;1.67;;;;;;;21.85;57.46;101143.80;;;;-49
2020/07/12 16:28:19;;;;;;;7.13;1.89;;;;;;;21.86;57.54;101142.00;;;;-56
2020/07/12 16:31:19;;;;;;;7.29;1.93;;;;;;;21.88;57.61;101142.83;;;;-52
2020/07/12 16:34:19;;;;;;;9.30;1.99;;;;;;;21.88;57.69;101144.38;;;;-57
2020/07/12 16:37:19;;;;;;;12.87;2.38;;;;;;;21.89;57.80;101142.75;;;;-41
2020/07/12 16:40:19;;;;;;;11.49;2.29;;;;;;;21.90;58.04;101145.46;;;;-53
2020/07/12 16:43:19;;;;;;;8.15;1.98;;;;;;;21.90;57.81;101139.91;;;;-51
2020/07/12 16:46:19;;;;;;;10.79;2.07;;;;;;;21.91;58.10;101139.25;;;;-52
2020/07/12 16:49:19;;;;;;;10.57;1.97;;;;;;;21.91;57.90;101136.72;;;;-47
2020/07/12 16:52:19;;;;;;;15.00;2.13;;;;;;;21.91;57.75;101131.09;;;;-50
2020/07/12 16:55:19;;;;;;;8.75;2.13;;;;;;;21.93;57.72;101131.43;;;;-51
2020/07/12 16:58:19;;;;;;;12.25;2.21;;;;;;;21.94;57.85;101127.95;;;;-50
2020/07/12 17:01:19;;;;;;;13.23;2.09;;;;;;;21.94;58.11;101124.11;;;;-60
2020/07/12 17:04:19;;;;;;;13.75;2.37;;;;;;;21.95;58.06;101121.89;;;;-54
2020/07/12 17:07:19;;;;;;;14.79;2.48;;;;;;;21.96;58.05;101120.05;;;;-49
2020/07/12 17:10:28;;;;;;;7.91;2.11;;;;;;;21.97;57.66;101122.40;;;;-50
2020/07/12 17:13:19;;;;;;;9.72;2.15;;;;;;;21.97;57.81;101122.73;;;;-51
2020/07/12 17:16:19;;;;;;;7.61;2.10;;;;;;;21.98;58.09;101118.67;;;;-50
2020/07/12 17:19:19;;;;;;;10.56;1.97;;;;;;;21.99;57.75;101119.47;;;;-50
2020/07/12 17:22:19;;;;;;;7.93;2.14;;;;;;;21.99;57.65;101114.17;;;;-58
2020/07/12 17:25:19;;;;;;;13.97;2.37;;;;;;;21.99;57.86;101112.53;;;;-56
2020/07/12 17:28:19;;;;;;;16.85;2.30;;;;;;;21.97;57.88;101109.27;;;;-56